Terminal Aerodrome Forecast
Issued by NWS Twin Cities, MN

Home | Current Version | Previous Version | Text Only | Print | Product List | Glossary On
Versions: 1 2 3 4 5 6 7 8 9 10 11 12 13 14
000
FTUS43 KMPX 280520
TAFEAU
TAF
KEAU 280520Z 2806/2906 VRB03KT P6SM SCT250
     FM281500 34005KT P6SM SCT110 BKN200
     FM282200 35006KT P6SM BKN060 BKN090
     FM290200 35004KT P6SM FEW090=

USA.gov is the U.S. government's official web portal to all federal, state and local government web resources and services.